createdAt,value
2022-12-08T00:02:54.461Z,100278.31
2022-12-08T00:06:14.765Z,100277.31
2022-12-08T00:09:23.291Z,100279.03
2022-12-08T00:12:27.306Z,100286.25
2022-12-08T00:15:29.993Z,100274.41
2022-12-08T00:18:32.628Z,100269.94
2022-12-08T00:21:35.297Z,100268.81
2022-12-08T00:24:40.185Z,100259.09
2022-12-08T00:27:44.186Z,100265.84
2022-12-08T00:30:46.954Z,100252.94
2022-12-08T00:33:49.573Z,100264.19
2022-12-08T00:36:52.215Z,100250.75
2022-12-08T00:39:54.799Z,100254.84
2022-12-08T00:42:58.752Z,100240.59
2022-12-08T00:46:01.432Z,100240.22
2022-12-08T00:49:04.716Z,100233.47
2022-12-08T00:52:08.143Z,100230.66
2022-12-08T00:55:10.729Z,100224.25
2022-12-08T00:58:14.751Z,100224.34
2022-12-08T01:01:17.476Z,100224.78
2022-12-08T01:04:20.872Z,100222.72
2022-12-08T01:07:23.503Z,100219.84
2022-12-08T01:10:26.193Z,100223.53
2022-12-08T01:13:30.146Z,100215.50
2022-12-08T01:16:35.093Z,100218.75
2022-12-08T01:19:38.715Z,100217.44
2022-12-08T01:22:41.531Z,100211.56
2022-12-08T01:25:44.138Z,100219.91
2022-12-08T01:28:48.940Z,100220.69
2022-12-08T01:31:51.573Z,100211.34
2022-12-08T01:34:54.208Z,100213.59
2022-12-08T01:37:56.836Z,100206.94
2022-12-08T01:40:59.474Z,100206.50
2022-12-08T01:44:24.555Z,100204.00
2022-12-08T01:47:34.471Z,100197.75
2022-12-08T01:50:39.490Z,100195.78
2022-12-08T01:53:42.174Z,100191.59
2022-12-08T01:56:51.591Z,100194.72
2022-12-08T01:59:59.170Z,100189.97
2022-12-08T02:03:06.117Z,100183.97
2022-12-08T02:06:09.459Z,100187.41
2022-12-08T02:09:12.693Z,100189.09
2022-12-08T02:12:15.736Z,100181.69
2022-12-08T02:15:18.789Z,100180.31
2022-12-08T02:18:38.689Z,100177.50
2022-12-08T02:21:51.383Z,100166.91
2022-12-08T02:25:02.548Z,100166.63
2022-12-08T02:28:22.845Z,100166.44
2022-12-08T02:31:38.380Z,100163.06
2022-12-08T02:34:46.820Z,100167.97
2022-12-08T02:37:55.888Z,100157.41
2022-12-08T02:41:06.778Z,100169.13
2022-12-08T02:44:18.205Z,100152.63
2022-12-08T02:47:23.171Z,100148.63
2022-12-08T02:50:27.480Z,100144.78
2022-12-08T02:53:33.793Z,100153.28
2022-12-08T02:56:51.579Z,100144.53
2022-12-08T03:00:06.837Z,100139.91
2022-12-08T03:03:17.169Z,100139.28
2022-12-08T03:06:30.458Z,100128.88
2022-12-08T03:09:40.662Z,100123.59
2022-12-08T03:12:49.186Z,100121.72
2022-12-08T03:15:53.886Z,100121.56
2022-12-08T03:19:02.202Z,100114.41
2022-12-08T03:22:08.231Z,100112.41
2022-12-08T03:25:14.182Z,100107.09
2022-12-08T03:28:17.148Z,100112.50
2022-12-08T03:31:21.096Z,100099.91
2022-12-08T03:34:26.960Z,100101.63
2022-12-08T03:37:31.244Z,100094.81
2022-12-08T03:40:34.193Z,100095.41
2022-12-08T03:43:37.042Z,100100.78
2022-12-08T03:46:39.620Z,100094.31
2022-12-08T03:49:42.272Z,100092.75
2022-12-08T03:52:46.229Z,100085.59
2022-12-08T03:55:48.909Z,100082.94
2022-12-08T03:58:51.656Z,100079.31
2022-12-08T04:01:54.335Z,100078.31
2022-12-08T04:04:57.033Z,100076.59
2022-12-08T04:08:01.154Z,100073.88
2022-12-08T04:11:04.102Z,100076.41
2022-12-08T04:14:06.719Z,100075.63
2022-12-08T04:17:09.332Z,100066.88
2022-12-08T04:20:12.989Z,100074.66
2022-12-08T04:23:17.077Z,100070.97
2022-12-08T04:26:19.982Z,100070.41
2022-12-08T04:29:22.616Z,100066.88
2022-12-08T04:32:25.235Z,100065.16
2022-12-08T04:35:29.359Z,100070.53
2022-12-08T04:38:34.405Z,100064.88
2022-12-08T04:41:37.007Z,100067.00
2022-12-08T04:44:39.620Z,100068.94
2022-12-08T04:47:42.421Z,100070.00
2022-12-08T04:50:46.336Z,100065.53
2022-12-08T04:53:50.318Z,100065.41
2022-12-08T04:56:52.910Z,100065.91
2022-12-08T04:59:55.536Z,100060.53
2022-12-08T05:02:58.246Z,100059.13
2022-12-08T05:06:01.100Z,100068.69
2022-12-08T05:09:05.099Z,100060.94
2022-12-08T05:12:08.150Z,100047.97
2022-12-08T05:15:11.135Z,100047.38
2022-12-08T05:18:13.762Z,100044.19
2022-12-08T05:21:16.396Z,100060.53
2022-12-08T05:24:20.707Z,100051.19
2022-12-08T05:27:23.369Z,100057.06
2022-12-08T05:30:25.965Z,100054.44
2022-12-08T05:33:28.592Z,100064.09
2022-12-08T05:36:31.242Z,100058.59
2022-12-08T05:39:35.215Z,100054.91
2022-12-08T05:42:37.809Z,100052.84
2022-12-08T05:45:40.459Z,100054.09
2022-12-08T05:48:43.937Z,100049.28
2022-12-08T05:51:46.644Z,100054.56
2022-12-08T05:54:50.623Z,100050.59
2022-12-08T05:57:53.259Z,100050.53
2022-12-08T06:00:55.911Z,100052.34
2022-12-08T06:04:00.309Z,100056.69
2022-12-08T06:07:02.967Z,100046.34
2022-12-08T06:10:08.517Z,100053.56
2022-12-08T06:13:11.729Z,100069.78
2022-12-08T06:16:14.404Z,100065.06
2022-12-08T06:19:17.093Z,100074.28
2022-12-08T06:22:19.719Z,100073.19
2022-12-08T06:25:23.961Z,100072.13
2022-12-08T06:28:26.584Z,100079.16
2022-12-08T06:31:29.553Z,100079.53
2022-12-08T06:34:32.198Z,100075.72
2022-12-08T06:37:34.937Z,100079.91
2022-12-08T06:40:38.965Z,100074.75
2022-12-08T06:43:41.938Z,100075.81
2022-12-08T06:46:44.588Z,100079.03
2022-12-08T06:49:47.190Z,100071.69
2022-12-08T06:53:01.005Z,100074.19
2022-12-08T06:56:08.022Z,100073.19
2022-12-08T06:59:10.905Z,100077.06
2022-12-08T07:02:13.580Z,100082.22
2022-12-08T07:05:16.491Z,100088.47
2022-12-08T07:08:19.771Z,100089.13
2022-12-08T07:11:23.846Z,100089.13
2022-12-08T07:14:26.495Z,100086.47
2022-12-08T07:17:29.135Z,100087.16
2022-12-08T07:20:31.837Z,100090.84
2022-12-08T07:23:34.649Z,100096.03
2022-12-08T07:26:39.852Z,100097.81
2022-12-08T07:29:42.455Z,100098.63
2022-12-08T07:32:45.102Z,100101.91
2022-12-08T07:35:55.375Z,100088.97
2022-12-08T07:38:58.045Z,100091.22
2022-12-08T07:42:02.047Z,100097.19
2022-12-08T07:45:05.080Z,100094.31
2022-12-08T07:48:07.980Z,100097.97
2022-12-08T07:51:12.765Z,100090.84
2022-12-08T07:54:15.404Z,100080.28
2022-12-08T07:57:19.385Z,100092.94
2022-12-08T08:00:22.493Z,100094.88
2022-12-08T08:03:25.149Z,100096.53
2022-12-08T08:06:27.749Z,100093.56
2022-12-08T08:09:30.384Z,100094.16
2022-12-08T08:12:34.345Z,100098.56
2022-12-08T08:15:37.434Z,100106.13
2022-12-08T08:18:40.985Z,100104.56
2022-12-08T08:21:46.135Z,100110.09
2022-12-08T08:24:49.142Z,100112.81
2022-12-08T08:27:53.163Z,100110.00
2022-12-08T08:30:56.228Z,100111.22
2022-12-08T08:34:00.576Z,100119.84
2022-12-08T08:37:03.271Z,100113.31
2022-12-08T08:40:07.245Z,100120.91
2022-12-08T08:43:31.580Z,100109.41
2022-12-08T08:46:37.098Z,100114.19
2022-12-08T08:49:39.796Z,100123.84
2022-12-08T08:52:42.504Z,100109.22
2022-12-08T08:55:45.131Z,100108.88
2022-12-08T08:58:50.850Z,100113.63
2022-12-08T09:01:53.597Z,100115.81
2022-12-08T09:04:56.345Z,100116.66
2022-12-08T09:07:59.183Z,100117.50
2022-12-08T09:11:01.880Z,100119.44
2022-12-08T09:14:05.868Z,100122.69
2022-12-08T09:17:09.073Z,100117.19
2022-12-08T09:20:11.974Z,100118.97
2022-12-08T09:23:15.526Z,100125.84
2022-12-08T09:26:18.258Z,100111.69
2022-12-08T09:29:22.224Z,100115.88
2022-12-08T09:32:24.825Z,100111.41
2022-12-08T09:35:27.457Z,100121.31
2022-12-08T09:38:30.082Z,100122.03
2022-12-08T09:41:39.166Z,100122.28
2022-12-08T09:44:54.650Z,100113.41
2022-12-08T09:48:03.054Z,100123.03
2022-12-08T09:51:06.445Z,100117.00
2022-12-08T09:54:17.376Z,100116.06
2022-12-08T09:57:23.612Z,100119.44
2022-12-08T10:00:27.679Z,100112.50
2022-12-08T10:03:31.649Z,100125.09
2022-12-08T10:06:42.349Z,100125.66
2022-12-08T10:09:49.751Z,100124.59
2022-12-08T10:12:56.030Z,100120.31
2022-12-08T10:16:13.953Z,100128.25
2022-12-08T10:19:22.608Z,100125.00
2022-12-08T10:22:27.105Z,100130.22
2022-12-08T10:25:35.678Z,100128.41
2022-12-08T10:28:44.454Z,100120.44
2022-12-08T10:31:49.321Z,100123.06
2022-12-08T10:35:00.988Z,100128.00
2022-12-08T10:38:06.307Z,100129.72
2022-12-08T10:41:17.925Z,100132.16
2022-12-08T10:44:21.175Z,100139.97
2022-12-08T10:47:28.062Z,100148.16
2022-12-08T10:50:36.045Z,100150.06
2022-12-08T10:53:47.282Z,100145.50
2022-12-08T10:56:54.690Z,100143.00
2022-12-08T10:59:58.379Z,100143.53
2022-12-08T11:03:04.479Z,100137.56
2022-12-08T11:06:17.570Z,100140.88
2022-12-08T11:09:27.128Z,100149.56
2022-12-08T11:12:31.371Z,100144.59
2022-12-08T11:15:38.807Z,100141.59
2022-12-08T11:18:46.836Z,100146.94
2022-12-08T11:21:49.514Z,100146.97
2022-12-08T11:25:00.138Z,100146.06
2022-12-08T11:28:03.084Z,100144.25
2022-12-08T11:31:22.739Z,100153.75
2022-12-08T11:34:34.242Z,100151.03
2022-12-08T11:37:40.902Z,100145.72
2022-12-08T11:40:45.091Z,100144.75
2022-12-08T11:43:53.929Z,100144.84
2022-12-08T11:47:01.965Z,100143.69
2022-12-08T11:50:20.470Z,100146.94
2022-12-08T11:53:31.098Z,100145.25
2022-12-08T11:56:38.229Z,100138.91
2022-12-08T11:59:44.316Z,100141.53
2022-12-08T12:02:54.427Z,100143.16
2022-12-08T12:06:30.454Z,100149.94
2022-12-08T12:09:49.609Z,100148.78
2022-12-08T12:13:01.149Z,100141.16
2022-12-08T12:16:45.542Z,100144.25
2022-12-08T12:19:49.680Z,100139.16
2022-12-08T12:22:59.543Z,100145.16
2022-12-08T12:26:06.177Z,100144.38
2022-12-08T12:29:17.182Z,100155.19
2022-12-08T12:32:20.007Z,100150.69
2022-12-08T12:35:33.120Z,100149.63
2022-12-08T12:38:57.528Z,100153.13
2022-12-08T12:42:01.601Z,100154.22
2022-12-08T12:45:27.580Z,100154.22
2022-12-08T12:48:30.204Z,100152.50
2022-12-08T12:51:46.366Z,100156.50
2022-12-08T12:55:25.296Z,100161.38
2022-12-08T12:58:50.725Z,100161.16
2022-12-08T13:01:55.994Z,100156.66
2022-12-08T13:05:03.369Z,100155.69
2022-12-08T13:08:09.429Z,100160.00
2022-12-08T13:11:13.900Z,100157.25
2022-12-08T13:14:29.868Z,100155.69
2022-12-08T13:17:34.773Z,100159.78
2022-12-08T13:20:43.546Z,100157.16
2022-12-08T13:23:48.891Z,100158.13
2022-12-08T13:27:34.702Z,100163.31
2022-12-08T13:30:45.333Z,100161.00
2022-12-08T13:33:48.318Z,100167.28
2022-12-08T13:36:58.160Z,100167.41
2022-12-08T13:40:06.733Z,100168.25
2022-12-08T13:43:19.028Z,100175.41
2022-12-08T13:57:06.805Z,100176.59
2022-12-08T14:00:19.019Z,100181.88
2022-12-08T14:03:21.710Z,100177.53
2022-12-08T14:06:30.117Z,100187.13
2022-12-08T14:09:36.622Z,100184.50
2022-12-08T14:12:40.783Z,100188.81
2022-12-08T14:15:44.832Z,100182.69
2022-12-08T14:18:47.467Z,100193.19
2022-12-08T14:21:58.199Z,100192.31
2022-12-08T14:25:01.290Z,100186.19
2022-12-08T14:28:05.850Z,100194.00
2022-12-08T14:31:13.872Z,100192.25
2022-12-08T14:34:16.808Z,100194.84
2022-12-08T14:37:19.577Z,100197.34
2022-12-08T14:40:24.894Z,100192.09
2022-12-08T14:43:29.780Z,100191.28
2022-12-08T14:46:33.772Z,100199.16
2022-12-08T14:49:39.657Z,100198.47
2022-12-08T14:52:44.333Z,100190.59
2022-12-08T14:55:49.312Z,100194.03
2022-12-08T14:59:04.038Z,100204.50
2022-12-08T15:02:22.697Z,100202.00
2022-12-08T15:05:30.272Z,100210.09
2022-12-08T15:08:34.011Z,100208.34
2022-12-08T15:11:36.985Z,100209.97
2022-12-08T15:14:42.664Z,100208.38
2022-12-08T15:17:51.533Z,100210.38
2022-12-08T15:21:01.914Z,100215.56
2022-12-08T15:24:04.960Z,100219.06
2022-12-08T15:27:07.580Z,100233.13
2022-12-08T15:30:13.923Z,100237.31
2022-12-08T15:33:18.034Z,100231.13
2022-12-08T15:36:20.668Z,100232.91
2022-12-08T15:39:32.331Z,100237.22
2022-12-08T15:42:34.973Z,100235.31
2022-12-08T15:45:37.608Z,100232.84
2022-12-08T15:48:41.682Z,100244.06
2022-12-08T15:51:44.337Z,100253.59
2022-12-08T15:54:48.967Z,100250.13
2022-12-08T15:58:51.227Z,100253.59
2022-12-08T16:01:17.121Z,100251.84
2022-12-08T16:07:45.606Z,100244.19
2022-12-08T16:11:29.153Z,100244.97
2022-12-08T16:14:48.741Z,100244.97
2022-12-08T16:17:33.615Z,100244.97
2022-12-08T16:21:06.031Z,100245.81
2022-12-08T16:24:04.635Z,100259.03
2022-12-08T16:30:40.350Z,100248.44
2022-12-08T16:33:43.011Z,100258.06
2022-12-08T16:36:47.043Z,100255.38
2022-12-08T16:39:51.040Z,100252.78
2022-12-08T16:42:53.795Z,100267.75
2022-12-08T16:45:56.501Z,100262.69
2022-12-08T16:48:59.481Z,100266.00
2022-12-08T16:52:03.420Z,100264.06
2022-12-08T16:55:09.648Z,100269.16
2022-12-08T16:58:12.266Z,100272.69
2022-12-08T17:01:17.514Z,100277.16
2022-12-08T17:04:31.428Z,100274.41
2022-12-08T17:07:36.440Z,100281.38
2022-12-08T17:10:40.453Z,100276.31
2022-12-08T17:13:43.330Z,100283.31
2022-12-08T17:16:46.631Z,100276.50
2022-12-08T17:19:49.370Z,100283.59
2022-12-08T17:22:54.537Z,100285.97
2022-12-08T17:26:00.979Z,100283.34
2022-12-08T17:29:04.685Z,100282.66
2022-12-08T17:32:07.457Z,100294.72
2022-12-08T17:35:11.744Z,100299.22
2022-12-08T17:38:15.797Z,100295.66
2022-12-08T17:41:18.442Z,100299.91
2022-12-08T17:44:21.603Z,100297.16
2022-12-08T17:47:24.292Z,100296.38
2022-12-08T17:50:26.893Z,100297.16
2022-12-08T17:53:37.093Z,100287.31
2022-12-08T17:56:40.079Z,100293.81
2022-12-08T17:59:42.708Z,100296.25
2022-12-08T18:02:45.427Z,100302.38
2022-12-08T18:05:48.115Z,100298.72
2022-12-08T18:08:52.088Z,100290.72
2022-12-08T18:11:54.721Z,100291.75
2022-12-08T18:14:57.370Z,100281.22
2022-12-08T18:17:59.982Z,100280.31
2022-12-08T18:21:02.717Z,100284.56
2022-12-08T18:24:08.491Z,100281.94
2022-12-08T18:27:11.124Z,100284.50
2022-12-08T18:30:17.063Z,100280.97
2022-12-08T18:33:19.678Z,100280.97
2022-12-08T18:36:24.700Z,100287.13
2022-12-08T18:39:31.040Z,100283.78
2022-12-08T18:42:33.738Z,100275.06
2022-12-08T18:45:36.837Z,100277.22
2022-12-08T18:48:42.144Z,100282.25
2022-12-08T18:51:44.969Z,100295.53
2022-12-08T18:55:05.784Z,100292.75
2022-12-08T18:58:10.801Z,100291.88
2022-12-08T19:01:14.396Z,100295.31
2022-12-08T19:04:28.398Z,100292.75
2022-12-08T19:07:32.199Z,100284.69
2022-12-08T19:10:38.130Z,100291.91
2022-12-08T19:13:40.752Z,100300.03
2022-12-08T19:16:43.392Z,100289.59
2022-12-08T19:19:46.040Z,100290.56
2022-12-08T19:22:48.663Z,100298.63
2022-12-08T19:25:52.647Z,100299.50
2022-12-08T19:28:55.542Z,100294.34
2022-12-08T19:31:58.279Z,100304.81
2022-12-08T19:35:00.899Z,100315.13
2022-12-08T19:38:03.568Z,100319.38
2022-12-08T19:41:35.249Z,100313.09
2022-12-08T19:44:56.250Z,100325.16
2022-12-08T19:47:58.860Z,100321.63
2022-12-08T19:51:01.490Z,100319.69
2022-12-08T19:54:04.312Z,100315.28
2022-12-08T19:57:08.287Z,100320.66
2022-12-08T20:00:13.437Z,100322.75
2022-12-08T20:03:16.736Z,100337.66
2022-12-08T20:06:19.704Z,100331.19
2022-12-08T20:09:23.109Z,100334.00
2022-12-08T20:12:27.149Z,100328.47
2022-12-08T20:15:29.795Z,100331.97
2022-12-08T20:18:35.120Z,100328.53
2022-12-08T20:21:37.794Z,100331.97
2022-12-08T20:24:40.483Z,100331.91
2022-12-08T20:27:44.483Z,100334.53
2022-12-08T20:30:48.953Z,100330.41
2022-12-08T20:33:52.378Z,100330.69
2022-12-08T20:36:55.126Z,100329.44
2022-12-08T20:39:57.814Z,100330.56
2022-12-08T20:43:02.108Z,100344.81
2022-12-08T20:46:07.468Z,100341.81
2022-12-08T20:49:10.242Z,100340.94
2022-12-08T20:52:12.923Z,100346.13
2022-12-08T20:55:15.669Z,100348.72
2022-12-08T20:58:19.760Z,100356.44
2022-12-08T21:01:24.805Z,100346.81
2022-12-08T21:04:27.803Z,100349.50
2022-12-08T21:07:30.562Z,100347.91
2022-12-08T21:10:36.832Z,100347.78
2022-12-08T21:13:45.225Z,100347.97
2022-12-08T21:16:49.838Z,100356.56
2022-12-08T21:19:52.831Z,100361.09
2022-12-08T21:22:55.493Z,100361.94
2022-12-08T21:25:58.284Z,100349.88
2022-12-08T21:29:02.301Z,100355.91
2022-12-08T21:32:05.202Z,100352.69
2022-12-08T21:35:09.261Z,100362.31
2022-12-08T21:38:12.080Z,100361.22
2022-12-08T21:41:36.934Z,100360.34
2022-12-08T21:44:41.110Z,100366.44
2022-12-08T21:47:44.313Z,100360.34
2022-12-08T21:50:47.242Z,100362.47
2022-12-08T21:53:49.886Z,100363.03
2022-12-08T21:56:52.655Z,100364.00
2022-12-08T21:59:56.756Z,100362.28
2022-12-08T22:02:59.892Z,100359.41
2022-12-08T22:06:05.563Z,100356.56
2022-12-08T22:09:10.299Z,100369.47
2022-12-08T22:12:13.179Z,100359.69
2022-12-08T22:15:17.316Z,100356.72
2022-12-08T22:18:20.156Z,100363.03
2022-12-08T22:21:23.108Z,100360.56
2022-12-08T22:24:26.015Z,100352.84
2022-12-08T22:27:29.006Z,100359.69
2022-12-08T22:30:38.793Z,100370.13
2022-12-08T22:33:43.438Z,100365.03
2022-12-08T22:36:46.136Z,100359.00
2022-12-08T22:39:48.884Z,100368.72
2022-12-08T22:42:51.692Z,100365.06
2022-12-08T22:45:55.814Z,100369.28
2022-12-08T22:48:58.747Z,100357.22
2022-12-08T22:52:01.478Z,100364.34
2022-12-08T22:55:04.318Z,100368.66
2022-12-08T22:58:07.092Z,100371.22
2022-12-08T23:01:23.047Z,100371.13
2022-12-08T23:04:25.955Z,100380.63
2022-12-08T23:07:28.667Z,100383.34
2022-12-08T23:10:31.714Z,100385.09
2022-12-08T23:13:34.595Z,100382.56
2022-12-08T23:16:38.859Z,100374.88
2022-12-08T23:19:41.990Z,100376.06
2022-12-08T23:22:44.794Z,100379.75
2022-12-08T23:25:47.438Z,100376.00
2022-12-08T23:28:50.607Z,100380.38
2022-12-08T23:31:54.760Z,100373.56
2022-12-08T23:34:57.471Z,100377.81
2022-12-08T23:38:00.313Z,100377.97
2022-12-08T23:41:03.910Z,100377.22
2022-12-08T23:44:06.650Z,100373.84
2022-12-08T23:47:10.939Z,100374.13
2022-12-08T23:50:14.065Z,100373.88
2022-12-08T23:53:17.019Z,100382.81
2022-12-08T23:56:22.212Z,100383.78
2022-12-08T23:59:27.004Z,100387.53
